createdAt,value
2022-12-17T00:01:09.028Z,88.75
2022-12-17T00:03:56.869Z,88.91
2022-12-17T00:06:42.752Z,89.35
2022-12-17T00:09:30.124Z,87.99
2022-12-17T00:12:15.610Z,88.68
2022-12-17T00:15:01.323Z,88.77
2022-12-17T00:17:47.096Z,88.15
2022-12-17T00:20:33.539Z,88.33
2022-12-17T00:23:24.185Z,88.07
2022-12-17T00:26:12.293Z,88.93
2022-12-17T00:28:58.766Z,89.18
2022-12-17T00:31:48.676Z,88.71
2022-12-17T00:34:34.070Z,89.05
2022-12-17T00:37:20.006Z,88.58
2022-12-17T00:40:05.709Z,88.94
2022-12-17T00:42:51.324Z,89.25
2022-12-17T00:45:37.620Z,89.10
2022-12-17T00:48:23.417Z,87.92
2022-12-17T00:51:08.902Z,88.33
2022-12-17T00:53:54.712Z,89.23
2022-12-17T00:56:40.824Z,88.43
2022-12-17T00:59:26.260Z,88.83
2022-12-17T01:02:12.256Z,88.93
2022-12-17T01:04:57.788Z,89.17
2022-12-17T01:07:48.118Z,88.90
2022-12-17T01:10:33.761Z,89.02
2022-12-17T01:13:19.131Z,89.20
2022-12-17T01:16:05.000Z,88.64
2022-12-17T01:18:52.320Z,88.96
2022-12-17T01:21:37.853Z,88.99
2022-12-17T01:24:23.642Z,89.62
2022-12-17T01:27:09.152Z,89.92
2022-12-17T01:29:55.191Z,88.83
2022-12-17T01:32:40.909Z,89.78
2022-12-17T01:35:26.714Z,89.78
2022-12-17T01:38:12.452Z,89.07
2022-12-17T01:40:58.094Z,88.94
2022-12-17T01:43:55.126Z,89.00
2022-12-17T01:46:42.745Z,89.72
2022-12-17T01:49:29.790Z,88.79
2022-12-17T01:52:15.981Z,89.55
2022-12-17T01:55:01.890Z,88.86
2022-12-17T01:57:48.820Z,88.95
2022-12-17T02:00:36.754Z,89.08
2022-12-17T02:03:23.676Z,89.63
2022-12-17T02:06:23.352Z,88.95
2022-12-17T02:09:39.841Z,89.39
2022-12-17T02:12:53.182Z,89.42
2022-12-17T02:15:46.272Z,88.90
2022-12-17T02:18:39.900Z,89.72
2022-12-17T02:21:27.167Z,89.61
2022-12-17T02:24:37.895Z,89.56
2022-12-17T02:27:28.520Z,89.30
2022-12-17T02:30:18.293Z,89.47
2022-12-17T02:33:07.084Z,89.81
2022-12-17T02:35:59.382Z,90.03
2022-12-17T02:38:48.030Z,90.26
2022-12-17T02:44:19.656Z,89.13
2022-12-17T02:47:07.946Z,89.76
2022-12-17T02:49:53.987Z,90.37
2022-12-17T02:52:41.032Z,89.51
2022-12-17T02:55:27.241Z,90.64
2022-12-17T02:58:12.783Z,89.70
2022-12-17T03:00:58.413Z,90.65
2022-12-17T03:03:49.929Z,90.77
2022-12-17T03:06:36.091Z,90.90
2022-12-17T03:09:22.515Z,90.50
2022-12-17T03:12:08.871Z,89.94
2022-12-17T03:14:54.293Z,90.83
2022-12-17T03:17:39.944Z,89.86
2022-12-17T03:20:25.805Z,90.90
2022-12-17T03:23:11.396Z,91.00
2022-12-17T03:25:57.202Z,90.96
2022-12-17T03:28:42.622Z,90.61
2022-12-17T03:31:28.691Z,90.73
2022-12-17T03:34:14.351Z,90.74
2022-12-17T03:37:00.072Z,91.25
2022-12-17T03:39:45.576Z,90.75
2022-12-17T03:42:31.387Z,91.98
2022-12-17T03:45:17.140Z,91.32
2022-12-17T03:48:02.905Z,91.76
2022-12-17T03:50:48.641Z,91.51
2022-12-17T03:53:34.477Z,92.13
2022-12-17T03:56:20.346Z,91.89
2022-12-17T03:59:05.830Z,91.96
2022-12-17T04:01:51.626Z,92.57
2022-12-17T04:04:37.392Z,92.04
2022-12-17T04:07:23.300Z,92.55
2022-12-17T04:10:08.950Z,92.70
2022-12-17T04:12:54.892Z,92.38
2022-12-17T04:15:40.629Z,92.97
2022-12-17T04:18:26.211Z,92.89
2022-12-17T04:21:28.707Z,93.91
2022-12-17T04:24:14.433Z,94.11
2022-12-17T04:27:00.311Z,94.32
2022-12-17T04:29:46.052Z,93.98
2022-12-17T04:32:35.149Z,94.62
2022-12-17T04:35:21.081Z,94.86
2022-12-17T04:38:06.767Z,95.01
2022-12-17T04:40:52.670Z,94.90
2022-12-17T04:43:38.761Z,94.75
2022-12-17T04:46:24.761Z,95.12
2022-12-17T04:49:10.123Z,95.51
2022-12-17T04:51:55.763Z,95.44
2022-12-17T04:54:41.380Z,95.62
2022-12-17T04:57:27.035Z,95.54
2022-12-17T05:00:12.820Z,95.09
2022-12-17T05:02:58.693Z,95.98
2022-12-17T05:05:44.834Z,95.88
2022-12-17T05:08:30.703Z,96.01
2022-12-17T05:11:23.915Z,95.76
2022-12-17T05:14:09.595Z,96.46
2022-12-17T05:16:55.411Z,95.99
2022-12-17T05:19:40.845Z,95.79
2022-12-17T05:22:26.611Z,95.92
2022-12-17T05:25:12.457Z,96.32
2022-12-17T05:27:58.198Z,95.85
2022-12-17T05:30:43.779Z,96.44
2022-12-17T05:33:29.202Z,96.06
2022-12-17T05:36:19.357Z,96.34
2022-12-17T05:39:06.676Z,95.90
2022-12-17T05:41:53.310Z,95.99
2022-12-17T05:44:38.987Z,96.15
2022-12-17T05:47:24.882Z,96.76
2022-12-17T05:50:10.612Z,96.05
2022-12-17T05:52:56.172Z,96.05
2022-12-17T05:55:41.879Z,96.20
2022-12-17T05:58:30.924Z,96.32
2022-12-17T06:01:18.853Z,96.17
2022-12-17T06:04:04.377Z,96.12
2022-12-17T06:06:50.320Z,96.48
2022-12-17T06:09:36.491Z,96.19
2022-12-17T06:12:22.041Z,96.18
2022-12-17T06:15:07.552Z,96.02
2022-12-17T06:17:53.220Z,95.88
2022-12-17T06:20:38.641Z,95.76
2022-12-17T06:23:28.154Z,96.04
2022-12-17T06:26:15.512Z,96.09
2022-12-17T06:29:02.345Z,96.00
2022-12-17T06:31:48.030Z,96.03
2022-12-17T06:34:33.806Z,96.11
2022-12-17T06:37:19.551Z,96.07
2022-12-17T06:40:05.021Z,96.38
2022-12-17T06:42:50.621Z,96.39
2022-12-17T06:45:36.011Z,96.15
2022-12-17T06:48:27.063Z,96.12
2022-12-17T06:51:13.650Z,95.76
2022-12-17T06:54:00.283Z,96.16
2022-12-17T06:56:46.950Z,95.97
2022-12-17T06:59:32.434Z,95.94
2022-12-17T07:02:18.362Z,95.99
2022-12-17T07:05:04.085Z,96.08
2022-12-17T07:07:49.809Z,96.15
2022-12-17T07:10:35.548Z,95.79
2022-12-17T07:13:26.103Z,95.83
2022-12-17T07:16:23.058Z,95.85
2022-12-17T07:19:08.620Z,95.39
2022-12-17T07:21:54.423Z,95.76
2022-12-17T07:24:39.861Z,95.73
2022-12-17T07:27:25.455Z,95.71
2022-12-17T07:30:11.032Z,95.62
2022-12-17T07:32:56.555Z,95.84
2022-12-17T07:35:42.134Z,95.91
2022-12-17T07:38:29.637Z,95.54
2022-12-17T07:41:16.957Z,95.21
2022-12-17T07:44:02.744Z,95.39
2022-12-17T07:46:48.502Z,95.30
2022-12-17T07:49:34.195Z,94.95
2022-12-17T07:52:19.769Z,94.81
2022-12-17T07:55:05.114Z,94.79
2022-12-17T07:57:50.964Z,94.83
2022-12-17T08:00:36.703Z,94.80
2022-12-17T08:03:23.465Z,94.78
2022-12-17T08:06:09.156Z,94.83
2022-12-17T08:08:54.848Z,94.86
2022-12-17T08:11:40.570Z,94.99
2022-12-17T08:14:26.047Z,95.09
2022-12-17T08:17:11.672Z,94.98
2022-12-17T08:19:57.400Z,94.62
2022-12-17T08:22:42.795Z,94.41
2022-12-17T08:25:28.743Z,94.95
2022-12-17T08:28:48.519Z,94.82
2022-12-17T08:31:22.329Z,94.73
2022-12-17T08:34:08.355Z,94.78
2022-12-17T08:36:53.891Z,94.42
2022-12-17T08:39:39.318Z,94.20
2022-12-17T08:42:25.000Z,94.01
2022-12-17T08:45:10.904Z,94.21
2022-12-17T08:48:03.451Z,94.13
2022-12-17T08:50:49.552Z,94.09
2022-12-17T08:53:35.666Z,94.02
2022-12-17T08:56:21.470Z,93.93
2022-12-17T08:59:07.318Z,94.31
2022-12-17T09:01:53.124Z,93.96
2022-12-17T09:04:39.016Z,94.14
2022-12-17T09:07:24.505Z,93.83
2022-12-17T09:10:29.822Z,94.00
2022-12-17T09:13:19.612Z,93.97
2022-12-17T09:16:11.082Z,93.59
2022-12-17T09:18:56.967Z,93.79
2022-12-17T09:21:42.582Z,93.89
2022-12-17T09:24:28.954Z,93.52
2022-12-17T09:27:14.462Z,93.75
2022-12-17T09:30:00.036Z,93.35
2022-12-17T09:32:46.113Z,93.23
2022-12-17T09:35:31.720Z,93.14
2022-12-17T09:38:17.337Z,93.83
2022-12-17T09:41:07.246Z,93.65
2022-12-17T09:44:17.255Z,93.55
2022-12-17T09:47:06.701Z,93.30
2022-12-17T09:49:52.596Z,93.37
2022-12-17T09:52:59.212Z,92.84
2022-12-17T09:55:53.484Z,93.04
2022-12-17T09:58:43.683Z,93.38
2022-12-17T10:01:41.506Z,92.87
2022-12-17T10:04:38.791Z,93.10
2022-12-17T10:07:31.904Z,93.17
2022-12-17T10:10:29.206Z,92.64
2022-12-17T10:13:15.111Z,92.79
2022-12-17T10:16:01.831Z,93.01
2022-12-17T10:18:48.575Z,92.77
2022-12-17T10:21:37.238Z,92.49
2022-12-17T10:24:28.680Z,92.98
2022-12-17T10:27:15.261Z,92.26
2022-12-17T10:30:03.235Z,92.33
2022-12-17T10:32:49.264Z,92.52
2022-12-17T10:35:44.830Z,92.35
2022-12-17T10:38:56.392Z,91.70
2022-12-17T10:41:46.138Z,91.73
2022-12-17T10:44:50.107Z,91.80
2022-12-17T10:47:41.426Z,91.32
2022-12-17T10:50:36.202Z,91.47
2022-12-17T10:53:23.600Z,91.53
2022-12-17T10:56:12.604Z,91.05
2022-12-17T10:59:10.965Z,91.12
2022-12-17T11:01:59.186Z,91.29
2022-12-17T11:05:11.257Z,91.22
2022-12-17T11:08:01.583Z,91.13
2022-12-17T11:10:54.171Z,90.91
2022-12-17T11:13:57.641Z,91.26
2022-12-17T11:16:49.483Z,91.25
2022-12-17T11:20:01.555Z,91.20
2022-12-17T11:23:05.341Z,91.23
2022-12-17T11:25:59.693Z,91.11
2022-12-17T11:28:48.368Z,91.31
2022-12-17T11:31:37.121Z,91.64
2022-12-17T11:34:46.205Z,91.16
2022-12-17T11:37:39.744Z,91.80
2022-12-17T11:40:36.974Z,91.46
2022-12-17T11:43:52.996Z,91.58
2022-12-17T11:47:04.181Z,91.41
2022-12-17T11:50:17.880Z,91.12
2022-12-17T11:53:37.703Z,91.44
2022-12-17T11:57:07.100Z,91.41
2022-12-17T12:00:00.871Z,91.35
2022-12-17T12:03:23.452Z,91.13
2022-12-17T12:06:14.386Z,91.24
2022-12-17T12:09:17.196Z,91.56
2022-12-17T12:12:33.774Z,91.12
2022-12-17T12:15:43.281Z,90.65
2022-12-17T12:18:50.079Z,91.26
2022-12-17T12:21:41.364Z,91.43
2022-12-17T12:25:10.626Z,91.03
2022-12-17T12:28:10.902Z,90.89
2022-12-17T12:31:12.809Z,91.29
2022-12-17T12:34:04.349Z,91.15
2022-12-17T12:36:50.597Z,91.27
2022-12-17T12:39:41.580Z,91.17
2022-12-17T12:42:32.973Z,91.07
2022-12-17T12:45:41.675Z,91.62
2022-12-17T12:49:07.189Z,91.15
2022-12-17T12:51:56.972Z,90.83
2022-12-17T12:54:49.836Z,91.40
2022-12-17T12:57:47.634Z,91.31
2022-12-17T13:01:19.716Z,91.20
2022-12-17T13:04:11.842Z,91.45
2022-12-17T13:06:56.261Z,90.88
2022-12-17T13:09:35.079Z,90.94
2022-12-17T13:12:02.339Z,90.72
2022-12-17T13:14:56.835Z,91.14
2022-12-17T13:17:37.616Z,91.26
2022-12-17T13:20:23.083Z,90.79
2022-12-17T13:23:24.642Z,90.72
2022-12-17T13:26:17.402Z,90.56
2022-12-17T13:29:13.620Z,90.77
2022-12-17T13:32:03.123Z,91.34
2022-12-17T13:35:10.812Z,90.95
2022-12-17T13:38:00.483Z,91.42
2022-12-17T13:40:39.536Z,91.13
2022-12-17T13:43:24.153Z,91.34
2022-12-17T13:45:53.027Z,91.35
2022-12-17T13:48:26.624Z,91.25
2022-12-17T13:50:56.499Z,91.66
2022-12-17T13:53:23.565Z,91.75
2022-12-17T13:55:53.871Z,91.89
2022-12-17T13:58:26.544Z,91.80
2022-12-17T14:01:06.017Z,91.72
2022-12-17T14:03:57.136Z,91.59
2022-12-17T14:06:21.730Z,92.06
2022-12-17T14:08:51.143Z,91.60
2022-12-17T14:11:37.012Z,91.57
2022-12-17T14:14:08.771Z,92.06
2022-12-17T14:16:36.003Z,92.18
2022-12-17T14:19:03.193Z,92.19
2022-12-17T14:21:30.523Z,92.19
2022-12-17T14:23:58.311Z,92.00
2022-12-17T14:26:25.443Z,92.44
2022-12-17T14:28:55.309Z,92.54
2022-12-17T14:31:29.000Z,92.83
2022-12-17T14:34:11.626Z,92.38
2022-12-17T14:36:43.957Z,93.17
2022-12-17T14:39:18.661Z,92.84
2022-12-17T14:42:04.493Z,93.10
2022-12-17T14:44:32.181Z,93.24
2022-12-17T14:47:20.021Z,93.12
2022-12-17T14:50:25.392Z,93.30
2022-12-17T14:52:57.939Z,93.19
2022-12-17T14:55:57.681Z,93.23
2022-12-17T14:58:27.462Z,93.33
2022-12-17T15:01:21.059Z,93.14
2022-12-17T15:03:48.200Z,93.30
2022-12-17T15:06:20.306Z,93.47
2022-12-17T15:08:49.073Z,93.41
2022-12-17T15:11:22.920Z,93.07
2022-12-17T15:13:54.612Z,93.22
2022-12-17T15:16:23.446Z,93.27
2022-12-17T15:18:50.664Z,93.06
2022-12-17T15:21:18.989Z,93.61
2022-12-17T15:23:47.322Z,93.40
2022-12-17T15:26:15.465Z,93.27
2022-12-17T15:28:43.604Z,93.67
2022-12-17T15:31:12.858Z,93.43
2022-12-17T15:33:40.842Z,93.75
2022-12-17T15:36:10.545Z,93.50
2022-12-17T15:38:38.079Z,93.40
2022-12-17T15:41:26.131Z,93.70
2022-12-17T15:43:53.341Z,93.23
2022-12-17T15:46:20.479Z,93.56
2022-12-17T15:48:50.492Z,93.19
2022-12-17T15:51:19.911Z,93.74
2022-12-17T15:53:48.380Z,93.79
2022-12-17T15:56:20.713Z,93.33
2022-12-17T15:58:47.951Z,93.32
2022-12-17T16:01:15.748Z,93.84
2022-12-17T16:03:43.236Z,93.65
2022-12-17T16:06:11.007Z,93.13
2022-12-17T16:08:41.306Z,93.53
2022-12-17T16:11:10.051Z,93.81
2022-12-17T16:13:38.233Z,93.66
2022-12-17T16:16:06.720Z,93.87
2022-12-17T16:18:34.523Z,93.80
2022-12-17T16:21:06.904Z,93.84
2022-12-17T16:23:34.431Z,93.60
2022-12-17T16:26:03.823Z,93.75
2022-12-17T16:28:31.396Z,94.52
2022-12-17T16:30:58.635Z,93.81
2022-12-17T16:33:28.729Z,93.62
2022-12-17T16:35:58.212Z,93.41
2022-12-17T16:38:25.261Z,94.46
2022-12-17T16:41:01.661Z,93.56
2022-12-17T16:43:32.850Z,93.57
2022-12-17T16:46:00.077Z,93.74
2022-12-17T16:48:27.098Z,93.62
2022-12-17T16:50:54.296Z,93.80
2022-12-17T16:53:21.324Z,93.63
2022-12-17T16:55:49.933Z,93.86
2022-12-17T16:58:18.081Z,94.28
2022-12-17T17:00:46.529Z,93.70
2022-12-17T17:03:14.052Z,93.80
2022-12-17T17:05:41.220Z,94.04
2022-12-17T17:08:08.385Z,93.98
2022-12-17T17:10:37.029Z,94.00
2022-12-17T17:13:04.770Z,93.90
2022-12-17T17:15:32.737Z,93.80
2022-12-17T17:18:01.925Z,93.62
2022-12-17T17:20:32.692Z,93.33
2022-12-17T17:23:00.066Z,93.79
2022-12-17T17:25:38.779Z,93.50
2022-12-17T17:28:14.554Z,93.31
2022-12-17T17:30:41.736Z,93.86
2022-12-17T17:33:08.923Z,93.56
2022-12-17T17:35:36.082Z,93.63
2022-12-17T17:38:03.136Z,93.58
2022-12-17T17:40:30.159Z,94.05
2022-12-17T17:42:57.232Z,94.26
2022-12-17T17:45:24.252Z,94.03
2022-12-17T17:47:51.351Z,93.88
2022-12-17T17:50:18.461Z,94.26
2022-12-17T17:52:45.599Z,94.18
2022-12-17T17:55:13.284Z,94.42
2022-12-17T17:57:40.380Z,94.70
2022-12-17T18:00:08.075Z,94.62
2022-12-17T18:02:36.999Z,94.84
2022-12-17T18:05:04.522Z,95.17
2022-12-17T18:07:31.570Z,94.83
2022-12-17T18:09:59.995Z,95.06
2022-12-17T18:12:45.814Z,95.34
2022-12-17T18:15:15.444Z,94.97
2022-12-17T18:17:50.100Z,95.15
2022-12-17T18:20:18.193Z,94.80
2022-12-17T18:22:46.617Z,95.04
2022-12-17T18:25:15.317Z,94.78
2022-12-17T18:27:43.633Z,94.92
2022-12-17T18:30:11.017Z,94.98
2022-12-17T18:32:38.033Z,95.22
2022-12-17T18:35:05.573Z,95.44
2022-12-17T18:37:32.627Z,94.92
2022-12-17T18:39:59.803Z,95.25
2022-12-17T18:42:45.495Z,95.14
2022-12-17T18:45:12.593Z,95.18
2022-12-17T18:47:39.582Z,94.98
2022-12-17T18:50:07.045Z,95.38
2022-12-17T18:52:34.112Z,94.96
2022-12-17T18:55:01.125Z,94.66
2022-12-17T18:57:28.220Z,95.34
2022-12-17T18:59:55.323Z,95.19
2022-12-17T19:02:22.668Z,95.01
2022-12-17T19:04:49.806Z,95.18
2022-12-17T19:07:16.841Z,95.09
2022-12-17T19:09:43.961Z,95.50
2022-12-17T19:12:11.021Z,95.64
2022-12-17T19:14:38.255Z,95.32
2022-12-17T19:17:06.231Z,95.65
2022-12-17T19:19:34.023Z,95.63
2022-12-17T19:22:02.258Z,95.31
2022-12-17T19:24:29.725Z,95.18
2022-12-17T19:26:56.963Z,95.31
2022-12-17T19:29:24.050Z,95.69
2022-12-17T19:31:51.550Z,95.55
2022-12-17T19:34:19.929Z,95.48
2022-12-17T19:36:47.996Z,95.66
2022-12-17T19:39:18.454Z,95.52
2022-12-17T19:41:46.146Z,95.88
2022-12-17T19:44:15.613Z,95.63
2022-12-17T19:46:43.616Z,95.91
2022-12-17T19:49:15.667Z,96.02
2022-12-17T19:51:44.567Z,95.77
2022-12-17T19:54:14.048Z,95.78
2022-12-17T19:56:42.362Z,95.63
2022-12-17T19:59:10.815Z,95.95
2022-12-17T20:01:44.443Z,95.88
2022-12-17T20:04:16.501Z,95.81
2022-12-17T20:06:44.697Z,95.79
2022-12-17T20:09:12.579Z,95.92
2022-12-17T20:11:40.084Z,95.78
2022-12-17T20:14:15.800Z,95.72
2022-12-17T20:16:55.357Z,95.40
2022-12-17T20:19:25.575Z,96.13
2022-12-17T20:21:53.411Z,95.85
2022-12-17T20:24:23.551Z,95.50
2022-12-17T20:26:54.941Z,95.45
2022-12-17T20:29:23.701Z,95.52
2022-12-17T20:31:52.762Z,95.80
2022-12-17T20:34:23.518Z,95.62
2022-12-17T20:36:53.241Z,95.41
2022-12-17T20:39:26.221Z,95.58
2022-12-17T20:41:54.597Z,95.60
2022-12-17T20:44:21.762Z,95.95
2022-12-17T20:46:48.860Z,95.88
2022-12-17T20:49:16.145Z,95.89
2022-12-17T20:51:43.836Z,96.22
2022-12-17T20:54:11.382Z,95.54
2022-12-17T20:56:39.432Z,96.36
2022-12-17T20:59:08.845Z,95.83
2022-12-17T21:01:37.219Z,96.16
2022-12-17T21:04:07.691Z,95.58
2022-12-17T21:06:41.062Z,96.03
2022-12-17T21:09:08.932Z,95.97
2022-12-17T21:11:38.063Z,96.44
2022-12-17T21:14:10.180Z,96.07
2022-12-17T21:16:38.420Z,96.24
2022-12-17T21:19:08.729Z,95.84
2022-12-17T21:21:37.927Z,95.88
2022-12-17T21:24:06.103Z,95.65
2022-12-17T21:26:36.122Z,95.50
2022-12-17T21:29:05.431Z,96.15
2022-12-17T21:31:50.495Z,95.97
2022-12-17T21:34:25.268Z,96.10
2022-12-17T21:36:52.562Z,95.51
2022-12-17T21:39:20.648Z,95.57
2022-12-17T21:42:07.980Z,95.75
2022-12-17T21:44:35.950Z,95.72
2022-12-17T21:47:03.256Z,95.56
2022-12-17T21:49:30.571Z,95.54
2022-12-17T21:51:59.517Z,95.56
2022-12-17T21:54:26.802Z,95.73
2022-12-17T21:56:53.834Z,95.96
2022-12-17T21:59:20.954Z,95.79
2022-12-17T22:01:48.474Z,96.16
2022-12-17T22:04:15.631Z,95.78
2022-12-17T22:06:46.995Z,95.87
2022-12-17T22:09:58.449Z,95.72
2022-12-17T22:12:36.850Z,95.84
2022-12-17T22:15:07.413Z,95.88
2022-12-17T22:17:34.940Z,95.64
2022-12-17T22:20:02.197Z,95.61
2022-12-17T22:22:29.374Z,96.04
2022-12-17T22:24:56.531Z,96.19
2022-12-17T22:27:24.210Z,96.00
2022-12-17T22:30:10.031Z,96.48
2022-12-17T22:32:55.635Z,95.76
2022-12-17T22:37:10.784Z,96.13
2022-12-17T22:40:33.314Z,95.70
2022-12-17T22:44:38.093Z,95.69
2022-12-17T22:44:52.002Z,95.98
2022-12-17T22:46:42.092Z,95.81
2022-12-17T22:49:09.835Z,95.85
2022-12-17T22:51:38.065Z,95.80
2022-12-17T22:54:09.365Z,95.92
2022-12-17T22:57:11.165Z,95.91
2022-12-17T22:59:25.888Z,96.01
2022-12-17T23:01:53.054Z,96.28
2022-12-17T23:04:20.264Z,95.96
2022-12-17T23:06:47.557Z,95.95
2022-12-17T23:09:19.528Z,95.75
2022-12-17T23:11:48.655Z,96.31
2022-12-17T23:14:16.579Z,96.11
2022-12-17T23:16:43.935Z,95.79
2022-12-17T23:19:11.238Z,96.16
2022-12-17T23:21:38.866Z,96.21
2022-12-17T23:24:06.389Z,96.20
2022-12-17T23:26:36.075Z,95.82
2022-12-17T23:29:06.531Z,96.49
2022-12-17T23:31:37.588Z,96.14
2022-12-17T23:34:05.149Z,96.22
2022-12-17T23:36:32.496Z,96.18
2022-12-17T23:39:00.078Z,95.98
2022-12-17T23:41:29.782Z,96.33
2022-12-17T23:43:57.576Z,95.99
2022-12-17T23:46:26.431Z,96.06
2022-12-17T23:48:53.904Z,96.41
2022-12-17T23:51:22.916Z,95.96
2022-12-17T23:53:50.403Z,96.33
2022-12-17T23:56:20.144Z,96.34
2022-12-17T23:58:48.632Z,96.25
